Time;durP1;ratioP1;P1;durP2;ratioP2;P2;SDS_P1;SDS_P2;PMS_P1;PMS_P2;Temp;Humidity;BMP_temperature;BMP_pressure;BME280_temperature;BME280_humidity;BME280_pressure;Samples;Min_cycle;Max_cycle;Signal;HPM_P1;HPM_P2
2022/05/17 00:00:38;;;;;;;4.63;2.50;;;21.80;63.00;;;;;;5052558;28;20194;-57
2022/05/17 00:03:03;;;;;;;4.18;2.70;;;21.80;63.00;;;;;;5051376;28;20052;-57
2022/05/17 00:05:29;;;;;;;4.97;2.70;;;21.80;63.00;;;;;;5051997;28;20052;-57
2022/05/17 00:07:54;;;;;;;4.72;2.78;;;21.80;63.00;;;;;;5052176;28;20575;-57
2022/05/17 00:10:21;;;;;;;5.82;3.60;;;21.80;63.00;;;;;;5051540;28;20403;-57
2022/05/17 00:12:48;;;;;;;4.85;2.88;;;21.80;63.00;;;;;;5052029;28;20496;-57
2022/05/17 00:15:14;;;;;;;5.63;2.75;;;21.80;63.00;;;;;;5051417;28;20053;-57
2022/05/17 00:17:40;;;;;;;5.72;2.92;;;21.80;62.90;;;;;;5051606;28;20052;-57
2022/05/17 00:20:06;;;;;;;4.93;2.72;;;21.80;62.90;;;;;;5067761;28;20041;-57
2022/05/17 00:22:31;;;;;;;4.65;2.55;;;21.80;62.90;;;;;;5051605;28;20041;-57
2022/05/17 00:24:57;;;;;;;4.90;2.50;;;21.80;62.90;;;;;;5067162;28;20049;-57
2022/05/17 00:27:23;;;;;;;5.80;2.47;;;21.80;62.90;;;;;;5051908;28;20049;-57
2022/05/17 00:29:48;;;;;;;5.65;2.80;;;21.80;62.90;;;;;;5052686;28;20539;-57
2022/05/17 00:32:14;;;;;;;5.22;2.97;;;21.80;62.90;;;;;;5056071;28;20041;-56
2022/05/17 00:34:39;;;;;;;4.00;2.60;;;21.80;62.80;;;;;;5055778;28;20098;-57
2022/05/17 00:37:05;;;;;;;4.65;2.33;;;21.80;63.40;;;;;;5055017;28;20477;-57
2022/05/17 00:39:30;;;;;;;4.63;2.72;;;21.80;62.80;;;;;;5055893;28;20051;-57
2022/05/17 00:41:56;;;;;;;4.65;2.85;;;21.80;62.80;;;;;;5055399;28;20053;-57
2022/05/17 00:47:08;;;;;;;3.85;2.60;;;21.70;62.80;;;;;;5055793;28;20473;-57
2022/05/17 00:49:40;;;;;;;4.03;2.45;;;21.70;62.80;;;;;;5071214;28;20047;-57
2022/05/17 00:52:27;;;;;;;4.43;2.67;;;21.70;62.70;;;;;;5070357;28;20500;-57
2022/05/17 00:54:54;;;;;;;4.37;2.63;;;21.70;62.70;;;;;;5050483;28;20106;-57
2022/05/17 00:57:30;;;;;;;4.28;2.70;;;21.70;62.80;;;;;;5070804;28;20307;-57
2022/05/17 00:59:57;;;;;;;4.32;2.38;;;21.70;62.70;;;;;;5070373;28;20053;-58
2022/05/17 01:02:23;;;;;;;4.05;2.53;;;21.70;62.70;;;;;;5055733;28;20196;-57
2022/05/17 01:04:48;;;;;;;6.03;2.85;;;21.70;62.70;;;;;;5053250;28;20147;-57
2022/05/17 01:07:19;;;;;;;4.72;2.60;;;21.70;62.70;;;;;;5055510;28;20136;-57
2022/05/17 01:09:44;;;;;;;4.22;2.22;;;21.70;62.70;;;;;;5070392;28;20132;-57
2022/05/17 01:12:10;;;;;;;3.90;2.42;;;21.70;62.70;;;;;;5054864;28;20136;-57
2022/05/17 01:17:22;;;;;;;4.00;2.25;;;21.70;62.60;;;;;;5055180;28;20451;-57
2022/05/17 01:19:47;;;;;;;3.67;2.33;;;21.70;62.50;;;;;;5053972;28;20138;-57
2022/05/17 01:22:13;;;;;;;3.78;2.60;;;21.70;62.60;;;;;;5055277;28;20040;-57
2022/05/17 01:24:38;;;;;;;4.60;2.40;;;21.70;62.50;;;;;;5054860;28;20132;-57
2022/05/17 01:27:28;;;;;;;4.78;2.40;;;21.60;62.50;;;;;;5054494;28;20400;-57
2022/05/17 01:29:54;;;;;;;3.80;2.50;;;21.70;62.50;;;;;;5067183;28;20063;-57
2022/05/17 01:32:20;;;;;;;4.63;2.33;;;21.70;62.50;;;;;;5054843;28;20400;-57
2022/05/17 01:34:46;;;;;;;4.55;2.22;;;21.70;62.50;;;;;;5053708;28;20049;-57
2022/05/17 01:37:12;;;;;;;5.95;2.80;;;21.60;62.40;;;;;;5054946;28;20048;-57
2022/05/17 01:39:38;;;;;;;3.42;2.17;;;21.70;62.50;;;;;;5054027;28;20091;-56
2022/05/17 01:42:04;;;;;;;3.35;2.28;;;21.60;62.40;;;;;;5054273;28;20045;-57
2022/05/17 01:44:30;;;;;;;4.68;2.25;;;21.60;62.30;;;;;;5055022;28;20049;-57
2022/05/17 01:46:55;;;;;;;2.55;2.00;;;21.60;62.30;;;;;;5053925;28;20043;-57
2022/05/17 01:49:21;;;;;;;4.50;2.55;;;21.60;62.30;;;;;;5054568;28;20049;-57
2022/05/17 01:51:46;;;;;;;4.55;2.80;;;21.60;62.30;;;;;;5054384;28;20068;-57
2022/05/17 01:54:12;;;;;;;4.55;2.60;;;21.60;62.30;;;;;;5054057;28;20467;-57
2022/05/17 01:56:37;;;;;;;3.97;2.15;;;21.60;62.20;;;;;;5054577;28;20033;-57
2022/05/17 01:59:03;;;;;;;3.80;2.47;;;21.60;62.10;;;;;;5054074;28;20048;-57
2022/05/17 02:01:28;;;;;;;3.72;2.42;;;21.60;62.20;;;;;;5053777;28;20033;-57
2022/05/17 02:03:54;;;;;;;3.80;2.28;;;21.60;62.20;;;;;;5053804;28;20055;-57
2022/05/17 02:06:20;;;;;;;4.68;2.50;;;21.60;62.30;;;;;;5052508;28;20404;-57
2022/05/17 02:08:45;;;;;;;3.90;2.38;;;21.60;62.30;;;;;;5052929;28;20484;-57
2022/05/17 02:11:11;;;;;;;3.65;2.20;;;21.60;62.30;;;;;;5054310;28;20040;-57
2022/05/17 02:13:38;;;;;;;3.17;2.00;;;21.60;62.20;;;;;;5054112;28;20114;-57
2022/05/17 02:16:04;;;;;;;4.05;2.10;;;21.60;62.20;;;;;;5053242;28;20053;-57
2022/05/17 02:18:30;;;;;;;3.55;2.20;;;21.60;62.20;;;;;;5053921;28;20081;-56
2022/05/17 02:20:55;;;;;;;3.28;2.25;;;21.60;62.20;;;;;;5053927;28;20099;-57
2022/05/17 02:23:21;;;;;;;3.40;2.03;;;21.60;62.20;;;;;;5053237;28;20049;-57
2022/05/17 02:25:46;;;;;;;3.85;2.20;;;21.60;62.20;;;;;;5053353;28;20052;-57
2022/05/17 02:28:12;;;;;;;3.95;2.50;;;21.50;62.10;;;;;;5054039;28;20041;-57
2022/05/17 02:30:39;;;;;;;3.22;2.45;;;21.60;62.20;;;;;;5053209;28;20536;-57
2022/05/17 02:33:06;;;;;;;3.50;2.13;;;21.50;62.20;;;;;;5069227;28;20056;-57
2022/05/17 02:35:31;;;;;;;4.75;2.28;;;21.50;62.10;;;;;;5053586;28;20480;-57
2022/05/17 02:37:57;;;;;;;4.30;2.25;;;21.50;62.10;;;;;;5052933;28;20060;-57
2022/05/17 02:40:22;;;;;;;3.40;2.15;;;21.50;62.10;;;;;;5053866;28;20044;-57
2022/05/17 02:42:48;;;;;;;3.50;2.33;;;21.50;62.10;;;;;;5052139;28;20094;-57
2022/05/17 02:45:13;;;;;;;3.42;2.05;;;21.50;62.00;;;;;;5053152;28;20496;-57
2022/05/17 02:47:39;;;;;;;3.47;2.03;;;21.50;62.00;;;;;;5053321;28;20049;-57
2022/05/17 02:50:05;;;;;;;3.10;1.95;;;21.50;61.90;;;;;;5052830;28;20469;-57
2022/05/17 02:52:31;;;;;;;4.95;2.38;;;21.50;61.90;;;;;;5052986;28;20045;-57
2022/05/17 02:54:56;;;;;;;3.72;2.10;;;21.50;61.90;;;;;;5053022;28;20041;-57
2022/05/17 02:57:22;;;;;;;3.13;2.03;;;21.50;61.90;;;;;;5052793;28;20041;-57
2022/05/17 02:59:47;;;;;;;3.80;1.90;;;21.50;62.00;;;;;;5052911;28;20037;-57
2022/05/17 03:02:13;;;;;;;3.05;2.00;;;21.50;61.90;;;;;;5053464;28;20040;-57
2022/05/17 03:04:38;;;;;;;4.28;2.10;;;21.50;61.90;;;;;;5052514;28;20496;-57
2022/05/17 03:07:04;;;;;;;3.05;2.30;;;21.50;62.00;;;;;;5053475;28;20117;-57
2022/05/17 03:09:29;;;;;;;6.45;2.05;;;21.50;62.00;;;;;;5053210;28;20045;-57
2022/05/17 03:11:55;;;;;;;4.25;1.90;;;21.50;62.00;;;;;;5052226;28;20050;-57
2022/05/17 03:14:23;;;;;;;3.00;1.92;;;21.40;61.90;;;;;;5052478;28;20049;-57
2022/05/17 03:16:48;;;;;;;;;;;21.50;61.90;;;;;;5053263;28;20132;-57
2022/05/17 03:19:14;;;;;;;3.35;1.88;;;21.50;61.80;;;;;;5052075;28;20022;-57
2022/05/17 03:21:40;;;;;;;4.35;1.88;;;21.50;61.90;;;;;;5052488;28;20041;-56
2022/05/17 03:24:05;;;;;;;3.13;2.00;;;21.50;61.90;;;;;;5053014;28;20048;-57
2022/05/17 03:26:31;;;;;;;3.55;1.83;;;21.50;61.80;;;;;;5052328;28;20069;-57
2022/05/17 03:28:58;;;;;;;3.10;1.83;;;21.50;61.80;;;;;;5052445;28;20140;-57
2022/05/17 03:31:24;;;;;;;3.55;1.60;;;21.40;61.80;;;;;;5052894;28;20045;-57
2022/05/17 03:33:49;;;;;;;3.28;1.70;;;21.40;62.40;;;;;;5051603;28;20051;-56
2022/05/17 03:36:15;;;;;;;3.70;1.85;;;21.50;61.70;;;;;;5052846;28;20127;-57
2022/05/17 03:38:40;;;;;;;2.75;1.77;;;21.50;61.80;;;;;;5052521;28;20045;-57
2022/05/17 03:41:06;;;;;;;3.78;1.88;;;21.40;61.80;;;;;;5051718;28;20493;-57
2022/05/17 03:43:32;;;;;;;3.85;2.00;;;21.40;61.70;;;;;;5052847;28;20060;-57
2022/05/17 03:45:57;;;;;;;2.50;1.52;;;21.40;61.70;;;;;;5052244;28;20041;-57
2022/05/17 03:48:24;;;;;;;3.58;1.85;;;21.40;61.70;;;;;;5051702;28;20049;-57
2022/05/17 03:50:49;;;;;;;4.03;1.85;;;21.40;61.70;;;;;;5052322;28;20112;-57
2022/05/17 03:53:15;;;;;;;4.32;1.80;;;21.40;61.70;;;;;;5051822;28;20182;-57
2022/05/17 03:55:41;;;;;;;4.05;1.90;;;21.40;61.70;;;;;;5051939;28;20099;-57
2022/05/17 03:58:07;;;;;;;3.53;1.60;;;21.40;61.70;;;;;;5052583;28;20045;-57
2022/05/17 04:00:33;;;;;;;2.78;1.80;;;21.40;61.70;;;;;;5051698;28;20044;-57
2022/05/17 04:02:58;;;;;;;3.05;1.63;;;21.40;61.70;;;;;;5052018;28;20047;-57
2022/05/17 04:05:24;;;;;;;3.15;2.05;;;21.40;61.70;;;;;;5051221;28;20656;-57
2022/05/17 04:07:49;;;;;;;2.97;1.88;;;21.40;61.70;;;;;;5050876;28;20044;-57
2022/05/17 04:10:15;;;;;;;3.28;2.00;;;21.40;61.70;;;;;;5052137;28;20045;-57
2022/05/17 04:12:41;;;;;;;3.13;1.80;;;21.30;61.70;;;;;;5052002;28;20037;-57
2022/05/17 04:15:08;;;;;;;4.25;2.05;;;21.40;61.70;;;;;;5051288;28;20056;-57
2022/05/17 04:17:33;;;;;;;3.05;1.70;;;21.40;61.80;;;;;;5052165;28;20114;-57
2022/05/17 04:19:59;;;;;;;2.97;1.85;;;21.30;61.80;;;;;;5051659;28;20439;-57
2022/05/17 04:22:25;;;;;;;2.38;1.40;;;21.40;61.90;;;;;;5051390;28;20433;-57
2022/05/17 04:24:55;;;;;;;3.75;1.90;;;21.40;61.80;;;;;;5052146;28;20108;-57
2022/05/17 04:27:22;;;;;;;4.13;1.88;;;21.40;61.90;;;;;;5052144;28;20450;-57
2022/05/17 04:29:47;;;;;;;3.80;1.70;;;21.30;61.70;;;;;;5050730;28;20144;-57
2022/05/17 04:32:13;;;;;;;2.90;1.60;;;21.40;61.80;;;;;;5052171;28;20086;-57
2022/05/17 04:34:38;;;;;;;3.58;1.90;;;21.40;61.80;;;;;;5050535;28;20076;-57
2022/05/17 04:37:04;;;;;;;2.00;1.48;;;21.40;61.90;;;;;;5051402;28;20045;-57
2022/05/17 04:39:30;;;;;;;3.45;2.10;;;21.40;61.80;;;;;;5052176;28;20041;-57
2022/05/17 04:41:56;;;;;;;3.58;1.80;;;21.40;61.80;;;;;;5051496;28;20049;-57
2022/05/17 04:44:22;;;;;;;4.60;2.00;;;21.40;61.70;;;;;;5051124;28;20037;-57
2022/05/17 04:46:47;;;;;;;2.63;1.63;;;21.40;61.70;;;;;;5051733;28;20072;-57
2022/05/17 04:49:13;;;;;;;4.22;1.90;;;21.50;61.70;;;;;;5052028;28;20056;-57
2022/05/17 04:51:38;;;;;;;3.33;1.80;;;21.50;61.70;;;;;;5050694;28;20480;-57
2022/05/17 04:54:04;;;;;;;3.40;2.00;;;21.50;61.80;;;;;;5051809;28;20515;-57
2022/05/17 04:56:29;;;;;;;3.72;1.73;;;21.50;61.70;;;;;;5051074;28;20052;-57
2022/05/17 04:58:55;;;;;;;3.60;1.60;;;21.50;61.70;;;;;;5051050;28;20399;-57
2022/05/17 05:01:21;;;;;;;2.80;1.63;;;21.50;61.80;;;;;;5052037;28;20041;-57
2022/05/17 05:03:47;;;;;;;3.58;1.83;;;21.50;61.80;;;;;;5050791;28;20389;-57
2022/05/17 05:06:12;;;;;;;2.65;1.80;;;21.50;61.80;;;;;;5051483;28;20041;-57
2022/05/17 05:08:38;;;;;;;4.25;1.80;;;21.50;61.80;;;;;;5051917;28;20065;-57
2022/05/17 05:11:03;;;;;;;3.95;1.70;;;21.50;61.70;;;;;;5051375;28;20476;-57
2022/05/17 05:13:29;;;;;;;2.58;1.73;;;21.50;61.70;;;;;;5051806;28;20102;-57
2022/05/17 05:15:55;;;;;;;4.97;2.35;;;21.50;61.70;;;;;;5052664;28;20056;-57
2022/05/17 05:18:21;;;;;;;2.90;1.70;;;21.50;61.90;;;;;;5054406;28;20550;-57
2022/05/17 05:20:46;;;;;;;1.83;1.40;;;21.50;61.80;;;;;;5054104;28;20053;-57
2022/05/17 05:23:12;;;;;;;2.97;1.70;;;21.50;61.80;;;;;;5055459;28;20058;-57
2022/05/17 05:25:38;;;;;;;3.38;1.90;;;21.50;61.80;;;;;;5053854;28;20068;-57
2022/05/17 05:28:05;;;;;;;3.33;1.70;;;21.50;61.90;;;;;;5055222;28;20045;-57
2022/05/17 05:30:31;;;;;;;2.67;1.47;;;21.50;61.90;;;;;;5055398;28;20040;-57
2022/05/17 05:32:57;;;;;;;2.95;1.80;;;21.50;61.90;;;;;;5054053;28;20051;-57
2022/05/17 05:35:24;;;;;;;4.50;2.03;;;21.50;61.90;;;;;;5054720;28;20384;-57
2022/05/17 05:37:50;;;;;;;4.10;1.70;;;21.50;62.00;;;;;;5054473;28;20056;-57
2022/05/17 05:40:15;;;;;;;2.75;1.60;;;21.50;62.00;;;;;;5054077;28;20037;-57
2022/05/17 05:42:41;;;;;;;3.38;1.88;;;21.50;62.70;;;;;;5054602;28;20037;-57
2022/05/17 05:45:08;;;;;;;4.40;2.05;;;21.50;62.10;;;;;;5054806;28;20488;-58
2022/05/17 05:47:33;;;;;;;3.33;1.42;;;21.50;62.00;;;;;;5053998;28;20477;-57
2022/05/17 05:49:59;;;;;;;3.17;1.60;;;21.50;62.10;;;;;;5054313;28;20052;-56
2022/05/17 05:52:24;;;;;;;3.25;1.70;;;21.50;62.10;;;;;;5054590;28;20484;-57
2022/05/17 05:54:50;;;;;;;3.25;1.65;;;21.50;62.20;;;;;;5053841;28;20082;-57
2022/05/17 05:57:15;;;;;;;4.13;1.65;;;21.50;62.20;;;;;;5054348;28;20067;-58
2022/05/17 05:59:41;;;;;;;3.22;1.92;;;21.50;62.20;;;;;;5054249;28;20053;-57
2022/05/17 06:02:07;;;;;;;2.95;1.70;;;21.50;62.20;;;;;;5053919;28;20032;-57
2022/05/17 06:04:32;;;;;;;3.63;1.70;;;21.50;62.30;;;;;;5054581;28;20053;-57
2022/05/17 06:06:58;;;;;;;2.83;1.58;;;21.60;62.40;;;;;;5053603;28;20045;-57
2022/05/17 06:09:24;;;;;;;3.33;1.58;;;21.60;62.40;;;;;;5054320;28;20071;-57
2022/05/17 06:11:50;;;;;;;2.50;1.52;;;21.60;62.40;;;;;;5053770;28;20053;-57
2022/05/17 06:14:16;;;;;;;2.83;1.48;;;21.60;62.40;;;;;;5053418;28;20060;-57
2022/05/17 06:16:41;;;;;;;3.40;1.70;;;21.60;62.50;;;;;;5054075;28;20128;-57
2022/05/17 06:19:07;;;;;;;3.10;1.50;;;21.60;62.50;;;;;;5068018;28;20049;-57
2022/05/17 06:21:32;;;;;;;2.42;1.40;;;21.60;62.50;;;;;;5073352;28;20047;-57
2022/05/17 06:23:58;;;;;;;3.47;1.50;;;21.60;62.40;;;;;;5073521;28;20044;-57
2022/05/17 06:26:23;;;;;;;3.25;1.58;;;21.60;62.40;;;;;;5073514;28;20040;-58
2022/05/17 06:28:50;;;;;;;3.60;1.48;;;21.60;62.40;;;;;;5072550;28;20492;-57
2022/05/17 06:31:15;;;;;;;4.50;1.80;;;21.60;62.40;;;;;;5073748;28;20551;-57
2022/05/17 06:33:40;;;;;;;3.67;1.70;;;21.60;62.40;;;;;;5047346;28;20046;-57
2022/05/17 06:36:06;;;;;;;3.95;1.80;;;21.60;62.40;;;;;;5033177;28;20051;-57
2022/05/17 06:38:32;;;;;;;2.97;1.75;;;21.60;62.40;;;;;;5033623;28;20088;-57
2022/05/17 06:40:58;;;;;;;10.18;2.10;;;21.60;62.50;;;;;;5033624;28;20052;-57
2022/05/17 06:43:24;;;;;;;3.95;1.83;;;21.60;62.60;;;;;;5033223;28;20037;-57
2022/05/17 06:45:49;;;;;;;5.05;1.77;;;21.70;62.70;;;;;;5033583;28;20041;-57
2022/05/17 06:48:15;;;;;;;5.43;1.70;;;21.70;62.60;;;;;;5033642;28;20049;-57
2022/05/17 06:50:40;;;;;;;2.80;1.30;;;21.70;62.60;;;;;;5032675;28;20187;-58
2022/05/17 06:53:08;;;;;;;6.22;1.90;;;21.70;62.60;;;;;;5033778;28;20183;-57
2022/05/17 06:55:33;;;;;;;3.65;1.50;;;21.70;62.70;;;;;;5033580;28;20116;-57
2022/05/17 06:57:58;;;;;;;4.30;1.58;;;21.80;62.80;;;;;;5032242;28;20128;-57
2022/05/17 07:00:24;;;;;;;5.15;1.65;;;21.80;62.90;;;;;;5033739;28;20496;-56
2022/05/17 07:02:50;;;;;;;6.95;1.70;;;21.80;63.10;;;;;;5033218;28;20048;-57
2022/05/17 07:05:16;;;;;;;3.60;1.70;;;21.80;63.20;;;;;;5032442;28;20037;-56
2022/05/17 07:07:41;;;;;;;5.03;1.75;;;21.80;63.20;;;;;;5032899;28;20049;-57
2022/05/17 07:13:07;;;;;;;8.02;1.80;;;21.80;63.50;;;;;;5033209;28;20096;-57
2022/05/17 07:15:33;;;;;;;5.78;1.50;;;21.80;63.50;;;;;;5033127;28;20057;-56
2022/05/17 07:18:02;;;;;;;4.60;1.70;;;21.80;63.50;;;;;;5031848;28;20523;-56
2022/05/17 07:20:28;;;;;;;3.90;1.85;;;21.90;63.50;;;;;;5033108;28;20106;-57
2022/05/17 07:22:54;;;;;;;7.35;1.65;;;21.90;63.50;;;;;;5032953;28;20788;-56
2022/05/17 07:25:19;;;;;;;4.13;1.80;;;21.90;63.50;;;;;;5032281;28;20048;-57
2022/05/17 07:27:45;;;;;;;4.72;1.40;;;21.90;63.50;;;;;;5032668;28;20378;-57
2022/05/17 07:30:11;;;;;;;5.90;1.55;;;21.90;63.60;;;;;;5033093;28;20041;-57
2022/05/17 07:32:37;;;;;;;6.68;1.80;;;21.90;63.60;;;;;;5032503;28;20037;-57
2022/05/17 07:35:02;;;;;;;3.45;1.50;;;21.90;63.80;;;;;;5032579;28;20048;-57
2022/05/17 07:37:28;;;;;;;3.55;1.60;;;21.90;63.80;;;;;;5032797;28;20045;-57
2022/05/17 07:39:54;;;;;;;6.10;1.63;;;22.00;63.80;;;;;;5031395;28;20662;-57
2022/05/17 07:42:19;;;;;;;5.32;1.63;;;22.00;63.90;;;;;;5032795;28;20527;-57
2022/05/17 07:44:45;;;;;;;4.88;1.90;;;22.00;63.90;;;;;;5032575;28;20493;-57
2022/05/17 07:47:10;;;;;;;3.90;1.35;;;22.00;64.00;;;;;;5031998;28;20041;-57
2022/05/17 07:49:38;;;;;;;5.78;1.58;;;22.00;64.00;;;;;;5036535;28;20073;-57
2022/05/17 07:52:04;;;;;;;3.50;1.45;;;22.00;64.00;;;;;;5048709;28;20052;-56
2022/05/17 07:54:30;;;;;;;4.40;1.50;;;22.00;64.00;;;;;;5040062;28;20041;-57
2022/05/17 07:56:55;;;;;;;4.03;1.48;;;22.10;63.90;;;;;;5032152;28;20419;-56
2022/05/17 07:59:21;;;;;;;3.65;1.50;;;22.10;64.00;;;;;;5032186;28;20049;-57
2022/05/17 08:01:46;;;;;;;4.97;1.60;;;22.10;64.00;;;;;;5032163;28;20049;-56
2022/05/17 08:04:12;;;;;;;6.28;1.65;;;22.10;64.10;;;;;;5032216;28;20045;-57
2022/05/17 08:06:38;;;;;;;4.18;1.58;;;22.10;64.10;;;;;;5031806;28;20095;-57
2022/05/17 08:09:04;;;;;;;4.40;1.50;;;22.10;64.10;;;;;;5032549;28;20081;-57
2022/05/17 08:11:30;;;;;;;4.10;1.70;;;22.10;64.00;;;;;;5032494;28;20076;-58
2022/05/17 08:13:55;;;;;;;5.57;1.67;;;22.10;64.00;;;;;;5030844;28;20053;-57
2022/05/17 08:16:20;;;;;;;6.22;1.67;;;22.20;64.10;;;;;;5031773;28;20049;-57
2022/05/17 08:18:46;;;;;;;5.78;1.65;;;22.20;64.10;;;;;;5035890;28;20077;-57
2022/05/17 08:21:11;;;;;;;7.32;1.65;;;22.20;64.10;;;;;;5037298;28;20439;-56
2022/05/17 08:23:37;;;;;;;6.18;1.52;;;22.20;64.00;;;;;;5032028;28;20061;-56
2022/05/17 08:28:47;;;;;;;5.63;1.77;;;22.20;63.80;;;;;;5031500;28;20049;-57
2022/05/17 08:31:12;;;;;;;6.68;1.75;;;22.20;63.70;;;;;;5032096;28;20068;-57
2022/05/17 08:33:38;;;;;;;6.50;1.73;;;22.20;63.60;;;;;;5034334;28;20044;-57
2022/05/17 08:36:06;;;;;;;5.78;2.10;;;22.20;63.60;;;;;;5043348;28;20041;-56
2022/05/17 08:38:34;;;;;;;5.03;1.60;;;22.20;63.60;;;;;;5051980;28;20044;-56
2022/05/17 08:41:09;;;;;;;6.22;1.50;;;22.30;63.70;;;;;;5051610;28;20056;-57
2022/05/17 08:43:49;;;;;;;5.13;1.80;;;22.20;63.60;;;;;;5051257;28;20044;-56
2022/05/17 08:46:27;;;;;;;7.10;1.60;;;22.30;63.70;;;;;;5052144;28;20041;-56
2022/05/17 08:48:58;;;;;;;2.92;1.48;;;22.30;63.80;;;;;;5057003;28;20565;-57
2022/05/17 08:51:34;;;;;;;7.60;2.33;;;22.30;63.90;;;;;;5058381;28;20060;-57
2022/05/17 08:54:00;;;;;;;11.45;2.03;;;22.30;63.90;;;;;;5049503;28;20124;-57
2022/05/17 08:56:28;;;;;;;5.95;1.60;;;22.30;63.90;;;;;;5050172;28;20091;-57
2022/05/17 08:58:53;;;;;;;11.85;1.75;;;22.40;64.10;;;;;;5050752;28;20049;-56
2022/05/17 09:01:24;;;;;;;7.00;2.00;;;22.40;64.10;;;;;;5038455;28;20034;-57
2022/05/17 09:04:04;;;;;;;5.22;1.70;;;22.40;64.10;;;;;;5057956;28;20404;-56
2022/05/17 09:06:49;;;;;;;3.13;1.50;;;22.40;64.20;;;;;;5068386;28;20037;-56
2022/05/17 09:09:42;;;;;;;5.22;1.55;;;22.40;64.20;;;;;;5054283;28;20051;-56
2022/05/17 09:12:15;;;;;;;5.93;1.60;;;22.40;64.10;;;;;;5055281;28;20458;-56
2022/05/17 09:14:42;;;;;;;3.42;1.65;;;22.40;64.20;;;;;;5053555;28;20063;-56
2022/05/17 09:17:11;;;;;;;4.60;1.60;;;22.40;64.20;;;;;;5069767;28;20395;-56
2022/05/17 09:19:36;;;;;;;4.15;1.70;;;22.40;64.30;;;;;;5055090;28;20052;-57
2022/05/17 09:22:03;;;;;;;3.78;1.15;;;22.40;64.30;;;;;;5054919;28;20124;-56
2022/05/17 09:24:30;;;;;;;5.50;1.48;;;22.40;64.30;;;;;;5054380;28;20059;-57
2022/05/17 09:27:09;;;;;;;5.97;1.92;;;22.40;64.20;;;;;;5054820;28;20045;-56
2022/05/17 09:29:40;;;;;;;6.63;1.40;;;22.40;64.20;;;;;;5055007;28;20480;-56
2022/05/17 09:32:07;;;;;;;4.15;1.20;;;22.40;64.20;;;;;;5069937;28;20045;-56
2022/05/17 09:34:44;;;;;;;5.40;1.35;;;22.40;64.30;;;;;;5054663;28;20043;-57
2022/05/17 09:37:14;;;;;;;5.38;1.95;;;22.40;64.30;;;;;;5055179;28;20484;-57
2022/05/17 09:39:43;;;;;;;4.22;1.23;;;22.40;64.30;;;;;;5047501;28;20607;-56
2022/05/17 09:42:10;;;;;;;6.90;1.30;;;22.40;64.20;;;;;;5069851;28;20041;-57
2022/05/17 09:44:40;;;;;;;4.63;1.58;;;22.40;64.30;;;;;;5053355;28;20081;-57
2022/05/17 09:47:06;;;;;;;5.03;1.50;;;22.40;64.30;;;;;;5069418;28;20120;-57
2022/05/17 09:52:34;;;;;;;4.90;1.40;;;22.40;64.40;;;;;;5054253;28;20045;-57
2022/05/17 09:55:07;;;;;;;;;;;22.40;64.30;;;;;;5054862;28;20044;-56
2022/05/17 09:57:32;;;;;;;3.90;1.55;;;22.30;64.20;;;;;;5053037;28;19925;-56
2022/05/17 10:00:12;;;;;;;4.22;1.23;;;22.30;64.30;;;;;;5068775;28;20057;-57
2022/05/17 10:02:55;;;;;;;7.28;1.30;;;22.40;64.30;;;;;;5054490;28;20048;-57
2022/05/17 10:05:28;;;;;;;4.93;1.70;;;22.40;64.30;;;;;;5049417;28;20055;-56
2022/05/17 10:08:02;;;;;;;4.18;1.38;;;22.40;64.30;;;;;;5053451;28;20045;-57
2022/05/17 10:10:37;;;;;;;7.95;1.75;;;22.40;64.40;;;;;;5054111;28;20048;-56
2022/05/17 10:13:23;;;;;;;6.38;2.17;;;22.40;64.60;;;;;;5042518;28;20041;-56
2022/05/17 10:15:51;;;;;;;5.00;1.52;;;22.40;64.70;;;;;;5047735;28;20053;-56
2022/05/17 10:18:28;;;;;;;2.92;1.13;;;22.40;64.70;;;;;;5049647;28;20057;-56
2022/05/17 10:20:56;;;;;;;5.85;1.73;;;22.40;64.80;;;;;;5031966;28;20042;-56
2022/05/17 10:23:45;;;;;;;4.45;1.10;;;22.40;64.80;;;;;;5049564;28;20053;-56
2022/05/17 10:26:16;;;;;;;5.57;1.50;;;22.40;64.70;;;;;;5036357;28;20048;-56
2022/05/17 10:29:01;;;;;;;5.07;1.50;;;22.40;64.70;;;;;;5051953;28;20055;-56
2022/05/17 10:31:35;;;;;;;4.97;1.63;;;22.40;64.80;;;;;;5052097;28;20053;-56
2022/05/17 10:34:22;;;;;;;4.75;1.42;;;22.40;64.70;;;;;;5066532;28;20045;-57
2022/05/17 10:36:50;;;;;;;4.03;1.45;;;22.40;64.60;;;;;;5052979;28;20476;-56
2022/05/17 10:39:24;;;;;;;7.07;1.92;;;22.40;64.50;;;;;;5048225;28;20044;-56
2022/05/17 10:41:50;;;;;;;7.32;1.40;;;22.40;64.60;;;;;;5041033;28;20084;-57
2022/05/17 10:44:16;;;;;;;3.25;1.20;;;22.40;64.60;;;;;;5042156;28;20037;-56
2022/05/17 10:46:47;;;;;;;4.45;1.40;;;22.40;64.60;;;;;;5061512;28;20056;-57
2022/05/17 10:49:21;;;;;;;5.47;1.50;;;22.50;64.60;;;;;;5045930;28;20373;-56
2022/05/17 10:52:10;;;;;;;4.85;1.50;;;22.40;64.60;;;;;;5036290;28;20049;-58
2022/05/17 10:54:46;;;;;;;5.68;1.27;;;22.50;64.60;;;;;;5030033;28;20049;-57
2022/05/17 10:57:23;;;;;;;5.07;1.38;;;22.40;64.40;;;;;;5031150;28;20041;-57
2022/05/17 11:00:09;;;;;;;4.05;1.55;;;22.50;64.30;;;;;;5031825;28;20072;-57
2022/05/17 11:02:57;;;;;;;2.85;1.30;;;22.50;64.30;;;;;;5031546;28;20069;-58
2022/05/17 11:05:36;;;;;;;3.05;1.38;;;22.50;64.20;;;;;;5031958;28;20041;-57
2022/05/17 11:08:16;;;;;;;4.20;1.58;;;22.50;64.20;;;;;;5031607;28;20053;-58
2022/05/17 11:10:53;;;;;;;4.75;1.63;;;22.50;64.20;;;;;;5032049;28;20049;-58
2022/05/17 11:13:37;;;;;;;6.05;1.77;;;22.50;64.20;;;;;;5032514;28;20076;-59
2022/05/17 11:16:12;;;;;;;4.97;1.55;;;22.50;64.10;;;;;;5031254;28;20111;-57
2022/05/17 11:18:56;;;;;;;4.28;1.38;;;22.50;64.20;;;;;;5014377;28;20169;-58
2022/05/17 11:21:32;;;;;;;3.10;1.35;;;22.50;64.10;;;;;;5031895;28;20045;-57
2022/05/17 11:24:19;;;;;;;3.75;1.40;;;22.50;64.10;;;;;;5031046;28;20480;-57
2022/05/17 11:26:50;;;;;;;5.70;1.40;;;22.50;64.10;;;;;;5032863;28;20055;-57
2022/05/17 11:29:42;;;;;;;4.43;1.88;;;22.50;64.10;;;;;;5031736;28;20038;-57
2022/05/17 11:32:43;;;;;;;6.13;1.77;;;22.50;64.10;;;;;;5032344;28;20076;-57
2022/05/17 11:35:27;;;;;;;8.85;2.72;;;22.50;64.00;;;;;;5032443;28;20061;-57
2022/05/17 11:37:52;;;;;;;9.27;3.03;;;22.50;64.00;;;;;;5031453;28;20033;-57
2022/05/17 11:40:43;;;;;;;9.60;3.10;;;22.50;64.00;;;;;;5031678;28;20528;-57
2022/05/17 11:45:55;;;;;;;12.73;3.67;;;22.50;64.00;;;;;;5031913;28;20050;-57
2022/05/17 11:48:22;;;;;;;9.85;2.72;;;22.50;63.90;;;;;;5016784;28;20056;-57
2022/05/17 11:50:51;;;;;;;10.57;2.90;;;22.50;64.00;;;;;;5040984;28;20037;-55
2022/05/17 11:53:23;;;;;;;11.25;3.55;;;22.50;64.10;;;;;;5038662;28;20129;-56
2022/05/17 11:56:25;;;;;;;9.00;3.00;;;22.50;64.10;;;;;;5032099;28;20456;-56
2022/05/17 11:58:56;;;;;;;9.65;3.47;;;22.50;64.10;;;;;;5031293;28;20482;-56
2022/05/17 12:01:28;;;;;;;9.60;3.50;;;22.50;64.00;;;;;;5061156;28;20103;-55
2022/05/17 12:03:54;;;;;;;12.20;4.32;;;22.50;64.10;;;;;;5038354;28;20048;-55
2022/05/17 12:06:48;;;;;;;12.32;3.83;;;22.50;64.10;;;;;;5031791;28;20124;-55
2022/05/17 12:09:22;;;;;;;10.20;3.47;;;22.50;64.10;;;;;;5031341;28;20046;-55
2022/05/17 12:12:02;;;;;;;10.85;2.78;;;22.50;64.10;;;;;;5031973;28;20048;-55
2022/05/17 12:14:42;;;;;;;11.65;3.22;;;22.50;64.10;;;;;;5031488;28;20052;-55
2022/05/17 12:17:13;;;;;;;11.90;2.75;;;22.50;64.20;;;;;;5031316;28;20049;-55
2022/05/17 12:20:03;;;;;;;11.23;3.35;;;22.50;64.20;;;;;;5029956;28;20048;-55
2022/05/17 12:22:43;;;;;;;9.30;3.15;;;22.60;64.30;;;;;;5032155;28;20053;-55
2022/05/17 12:25:29;;;;;;;7.35;3.40;;;22.60;64.30;;;;;;5036372;28;20037;-55
2022/05/17 12:27:54;;;;;;;9.57;3.63;;;22.60;64.40;;;;;;5059080;28;20042;-55
2022/05/17 12:33:25;;;;;;;8.65;3.00;;;22.60;64.40;;;;;;5047359;28;20045;-54
2022/05/17 12:35:51;;;;;;;10.15;3.20;;;22.60;64.40;;;;;;5043719;28;20038;-55
2022/05/17 12:44:24;;;;;;;9.13;2.80;;;22.60;64.40;;;;;;5066455;28;20049;-55
2022/05/17 12:46:51;;;;;;;7.68;3.00;;;22.60;64.60;;;;;;5055372;28;20041;-55
2022/05/17 12:49:22;;;;;;;8.23;2.67;;;22.60;64.70;;;;;;5070888;28;20080;-55
2022/05/17 12:52:30;;;;;;;8.43;2.80;;;22.60;64.70;;;;;;5055366;28;20046;-55
2022/05/17 12:54:58;;;;;;;8.18;3.10;;;22.60;64.80;;;;;;5033594;28;20091;-54
2022/05/17 12:57:26;;;;;;;7.25;2.85;;;22.60;64.90;;;;;;5070834;28;20080;-55
2022/05/17 12:59:52;;;;;;;10.90;2.90;;;22.70;65.00;;;;;;5043347;28;20120;-53
2022/05/17 13:02:24;;;;;;;9.90;3.10;;;22.70;65.00;;;;;;5050320;28;20128;-52
2022/05/17 13:04:50;;;;;;;9.43;3.38;;;22.70;65.00;;;;;;5035459;28;20057;-53
2022/05/17 13:07:17;;;;;;;8.45;2.60;;;22.70;64.90;;;;;;5035624;28;20046;-53
2022/05/17 13:10:04;;;;;;;7.53;2.80;;;22.70;65.00;;;;;;5034276;28;20474;-52
2022/05/17 13:12:32;;;;;;;7.07;2.67;;;22.70;65.00;;;;;;5035226;28;20052;-52
2022/05/17 13:14:58;;;;;;;8.80;2.50;;;22.70;65.00;;;;;;5034562;28;20034;-53
2022/05/17 13:17:34;;;;;;;9.27;3.00;;;22.70;65.00;;;;;;5049877;28;20415;-53
2022/05/17 13:20:11;;;;;;;7.13;2.38;;;22.70;65.00;;;;;;5049348;28;20100;-53
2022/05/17 13:22:40;;;;;;;8.07;3.03;;;22.70;65.10;;;;;;5050512;28;20050;-52